Time;durP1;ratioP1;P1;durP2;ratioP2;P2;SDS_P1;SDS_P2;PMS_P1;PMS_P2;Temp;Humidity;BMP_temperature;BMP_pressure;BME280_temperature;BME280_humidity;BME280_pressure;Samples;Min_cycle;Max_cycle;Signal;HPM_P1;HPM_P2
2023/06/17 00:01:50;;;;;;;22.52;11.68;;;;;;;;;;4836342;29;20041;-89
2023/06/17 00:04:16;;;;;;;24.45;12.25;;;;;;;;;;4850720;29;20040;-88
2023/06/17 00:07:04;;;;;;;21.60;12.32;;;;;;;;;;4839772;29;20312;-89
2023/06/17 00:09:30;;;;;;;28.63;12.48;;;;;;;;;;4858906;29;20036;-90
2023/06/17 00:11:57;;;;;;;21.50;11.40;;;;;;;;;;4858506;29;20056;-90
2023/06/17 00:14:24;;;;;;;21.10;11.55;;;;;;;;;;4856289;29;20021;-89
2023/06/17 00:16:51;;;;;;;20.23;11.00;;;;;;;;;;4841811;29;20498;-88
2023/06/17 00:19:27;;;;;;;24.75;11.95;;;;;;;;;;4851699;29;20025;-90
2023/06/17 00:22:18;;;;;;;23.13;11.50;;;;;;;;;;4838070;29;20421;-90
2023/06/17 00:24:45;;;;;;;22.67;10.88;;;;;;;;;;4857401;29;20029;-90
2023/06/17 00:27:18;;;;;;;21.17;11.70;;;;;;;;;;4852067;29;20084;-90
2023/06/17 00:29:45;;;;;;;29.83;12.52;;;;;;;;;;4840430;29;20068;-89
2023/06/17 00:32:17;;;;;;;30.85;15.50;;;;;;;;;;4839613;29;20025;-89
2023/06/17 00:34:43;;;;;;;26.13;12.48;;;;;;;;;;4840633;29;20044;-89
2023/06/17 00:37:10;;;;;;;38.88;12.40;;;;;;;;;;4844318;29;20020;-88
2023/06/17 00:39:39;;;;;;;49.63;16.35;;;;;;;;;;4848030;29;20136;-88
2023/06/17 00:42:06;;;;;;;18.02;12.30;;;;;;;;;;4856682;29;20064;-87
2023/06/17 00:44:33;;;;;;;22.70;12.85;;;;;;;;;;4841088;29;20538;-88
2023/06/17 00:47:00;;;;;;;31.88;12.52;;;;;;;;;;4864338;29;20049;-88
2023/06/17 00:49:42;;;;;;;28.35;12.85;;;;;;;;;;4856444;29;20052;-87
2023/06/17 00:52:09;;;;;;;21.60;12.00;;;;;;;;;;4857125;29;20025;-88
2023/06/17 00:54:40;;;;;;;20.88;13.48;;;;;;;;;;4851743;29;20055;-88
2023/06/17 00:57:09;;;;;;;29.13;13.57;;;;;;;;;;4839183;29;20046;-90
2023/06/17 00:59:37;;;;;;;29.83;14.00;;;;;;;;;;4857795;29;20041;-90
2023/06/17 01:02:04;;;;;;;28.52;12.93;;;;;;;;;;4846488;29;20048;-90
2023/06/17 01:04:31;;;;;;;30.48;12.88;;;;;;;;;;4850733;29;20033;-91
2023/06/17 01:07:23;;;;;;;25.00;13.25;;;;;;;;;;4843573;29;20085;-90
2023/06/17 01:10:03;;;;;;;22.48;12.82;;;;;;;;;;4853259;29;20124;-89
2023/06/17 01:12:29;;;;;;;36.22;12.20;;;;;;;;;;4870514;29;20185;-89
2023/06/17 01:14:58;;;;;;;32.50;12.32;;;;;;;;;;4861456;29;20538;-90
2023/06/17 01:17:28;;;;;;;25.23;12.32;;;;;;;;;;4857665;29;20024;-89
2023/06/17 01:20:03;;;;;;;25.40;11.70;;;;;;;;;;4862665;29;20055;-90
2023/06/17 01:22:30;;;;;;;26.20;13.15;;;;;;;;;;4852738;29;20033;-89
2023/06/17 01:24:56;;;;;;;29.98;12.13;;;;;;;;;;4845830;29;20037;-89
2023/06/17 01:27:23;;;;;;;22.33;11.82;;;;;;;;;;4845491;29;20132;-90
2023/06/17 01:29:53;;;;;;;20.90;11.25;;;;;;;;;;4841545;29;20033;-90
2023/06/17 01:32:23;;;;;;;26.60;11.85;;;;;;;;;;4864217;29;20037;-90
2023/06/17 01:35:06;;;;;;;25.92;11.63;;;;;;;;;;4851828;29;20123;-90
2023/06/17 01:37:48;;;;;;;23.27;11.15;;;;;;;;;;4862965;29;20041;-89
2023/06/17 01:40:16;;;;;;;27.45;11.10;;;;;;;;;;4857814;29;20054;-89
2023/06/17 01:42:45;;;;;;;23.67;11.50;;;;;;;;;;4856629;29;20096;-89
2023/06/17 01:45:12;;;;;;;23.05;11.20;;;;;;;;;;4840777;29;20037;-89
2023/06/17 01:47:48;;;;;;;;;;;;;;;;;;;;;
2023/06/17 01:50:19;;;;;;;26.08;12.85;;;;;;;;;;4872465;29;20039;-89
2023/06/17 01:52:46;;;;;;;24.67;11.90;;;;;;;;;;4851407;29;20090;-89
2023/06/17 01:55:17;;;;;;;25.58;11.85;;;;;;;;;;4843397;29;20517;-91
2023/06/17 01:57:43;;;;;;;30.77;13.25;;;;;;;;;;4875809;29;20090;-93
2023/06/17 02:00:12;;;;;;;29.05;12.85;;;;;;;;;;4840967;29;20172;-94
2023/06/17 02:02:39;;;;;;;25.17;12.60;;;;;;;;;;4860718;29;20037;-94
2023/06/17 02:05:09;;;;;;;25.98;12.32;;;;;;;;;;4850139;29;20041;-94
2023/06/17 02:07:35;;;;;;;26.40;13.25;;;;;;;;;;4854436;29;20471;-94
2023/06/17 02:10:03;;;;;;;25.98;12.30;;;;;;;;;;4847033;29;20132;-93
2023/06/17 02:12:30;;;;;;;23.13;12.25;;;;;;;;;;4848421;29;20037;-94
2023/06/17 02:14:56;;;;;;;25.67;13.20;;;;;;;;;;4844241;29;20096;-94
2023/06/17 02:17:27;;;;;;;22.92;13.10;;;;;;;;;;4845319;29;20512;-92
2023/06/17 02:19:57;;;;;;;31.75;14.77;;;;;;;;;;4868396;29;20121;-94
2023/06/17 02:22:25;;;;;;;29.95;12.85;;;;;;;;;;4853358;29;20033;-94
2023/06/17 02:25:00;;;;;;;25.77;12.80;;;;;;;;;;4859377;29;20768;-93
2023/06/17 02:27:26;;;;;;;28.10;13.98;;;;;;;;;;4856956;29;20044;-94
2023/06/17 02:29:52;;;;;;;26.73;12.43;;;;;;;;;;4858139;29;20033;-94
2023/06/17 02:32:19;;;;;;;19.88;11.55;;;;;;;;;;4855795;29;20056;-94
2023/06/17 02:34:47;;;;;;;23.83;12.77;;;;;;;;;;4844581;29;20037;-94
2023/06/17 02:37:14;;;;;;;31.80;13.70;;;;;;;;;;4843064;29;20029;-93
2023/06/17 02:39:41;;;;;;;25.73;12.48;;;;;;;;;;4845428;29;20042;-93
2023/06/17 02:42:11;;;;;;;28.73;12.60;;;;;;;;;;4849362;29;20043;-94
2023/06/17 02:44:37;;;;;;;21.10;12.25;;;;;;;;;;4861471;29;20029;-94
2023/06/17 02:47:07;;;;;;;29.73;13.95;;;;;;;;;;4859400;29;20060;-94
2023/06/17 02:49:33;;;;;;;26.67;12.77;;;;;;;;;;4856120;29;20040;-94
2023/06/17 02:52:01;;;;;;;26.17;13.00;;;;;;;;;;4855371;29;20178;-93
2023/06/17 02:54:27;;;;;;;30.08;13.57;;;;;;;;;;4846777;29;20045;-94
2023/06/17 02:56:53;;;;;;;23.25;12.30;;;;;;;;;;4859306;29;20055;-93
2023/06/17 02:59:21;;;;;;;30.25;12.55;;;;;;;;;;4859904;29;20578;-94
2023/06/17 03:01:49;;;;;;;24.70;14.15;;;;;;;;;;4861921;29;20064;-92
2023/06/17 03:04:23;;;;;;;29.80;13.30;;;;;;;;;;4871301;29;20025;-93
2023/06/17 03:06:52;;;;;;;27.13;13.77;;;;;;;;;;4848894;29;20041;-95
2023/06/17 03:09:18;;;;;;;24.92;13.07;;;;;;;;;;4860423;29;20051;-95
2023/06/17 03:11:48;;;;;;;28.52;12.23;;;;;;;;;;4855228;29;20025;-95
2023/06/17 03:14:19;;;;;;;31.80;13.88;;;;;;;;;;4869211;29;20417;-95
2023/06/17 03:16:48;;;;;;;23.67;13.50;;;;;;;;;;4849611;29;20156;-95
2023/06/17 03:19:34;;;;;;;30.35;13.73;;;;;;;;;;4868143;29;20037;-95
2023/06/17 03:22:01;;;;;;;32.17;15.27;;;;;;;;;;4858893;29;20109;-95
2023/06/17 03:24:30;;;;;;;24.65;14.77;;;;;;;;;;4858397;29;20084;-94
2023/06/17 03:26:58;;;;;;;31.83;15.45;;;;;;;;;;4843917;29;20053;-95
2023/06/17 03:29:25;;;;;;;26.20;15.35;;;;;;;;;;4846608;29;20128;-95
2023/06/17 03:31:56;;;;;;;27.45;14.80;;;;;;;;;;4874564;29;20048;-94
2023/06/17 03:34:24;;;;;;;31.70;15.73;;;;;;;;;;4843968;29;20037;-95
2023/06/17 03:36:50;;;;;;;29.60;16.00;;;;;;;;;;4858173;29;20037;-94
2023/06/17 03:39:17;;;;;;;29.10;16.15;;;;;;;;;;4847064;29;20060;-93
2023/06/17 03:41:43;;;;;;;28.38;15.85;;;;;;;;;;4858298;29;20045;-94
2023/06/17 03:44:09;;;;;;;32.33;16.02;;;;;;;;;;4846358;29;20067;-94
2023/06/17 03:46:35;;;;;;;32.25;16.33;;;;;;;;;;4857589;29;20051;-94
2023/06/17 03:49:08;;;;;;;31.40;16.38;;;;;;;;;;4850165;29;20041;-93
2023/06/17 03:51:36;;;;;;;31.70;16.30;;;;;;;;;;4859249;29;20108;-93
2023/06/17 03:54:12;;;;;;;31.40;16.73;;;;;;;;;;4864888;29;20029;-91
2023/06/17 03:56:47;;;;;;;33.58;16.90;;;;;;;;;;4841302;29;20748;-94
2023/06/17 03:59:17;;;;;;;31.30;16.07;;;;;;;;;;4861768;29;20041;-95
2023/06/17 04:01:44;;;;;;;31.75;15.50;;;;;;;;;;4840519;29;20054;-92
2023/06/17 04:04:17;;;;;;;29.08;16.65;;;;;;;;;;4857679;29;20068;-94
2023/06/17 04:06:43;;;;;;;34.28;16.10;;;;;;;;;;4859301;29;20136;-94
2023/06/17 04:09:19;;;;;;;37.80;16.10;;;;;;;;;;4876407;29;20389;-93
2023/06/17 04:11:45;;;;;;;30.90;15.70;;;;;;;;;;4855624;29;20033;-94
2023/06/17 04:14:14;;;;;;;32.38;14.38;;;;;;;;;;4847023;29;20371;-93
2023/06/17 04:16:41;;;;;;;28.67;13.60;;;;;;;;;;4859636;29;20033;-93
2023/06/17 04:19:13;;;;;;;30.98;14.88;;;;;;;;;;4859799;29;20040;-95
2023/06/17 04:21:41;;;;;;;25.95;13.75;;;;;;;;;;4856027;29;20132;-93
2023/06/17 04:24:13;;;;;;;26.35;12.40;;;;;;;;;;4840703;29;20045;-94
2023/06/17 04:26:40;;;;;;;28.92;13.63;;;;;;;;;;4855479;29;20033;-94
2023/06/17 04:29:08;;;;;;;21.00;13.70;;;;;;;;;;4859843;29;20068;-94
2023/06/17 04:31:39;;;;;;;27.92;13.82;;;;;;;;;;4855893;29;20029;-95
2023/06/17 04:34:06;;;;;;;27.23;13.50;;;;;;;;;;4847185;29;20064;-96
2023/06/17 04:36:32;;;;;;;27.20;12.63;;;;;;;;;;4868899;29;20065;-95
2023/06/17 04:39:11;;;;;;;28.90;13.13;;;;;;;;;;4851667;29;20041;-95
2023/06/17 04:41:38;;;;;;;29.73;12.88;;;;;;;;;;4844486;29;20037;-96
2023/06/17 04:44:08;;;;;;;26.60;14.07;;;;;;;;;;4844644;29;20124;-95
2023/06/17 04:46:46;;;;;;;30.85;14.25;;;;;;;;;;4844367;29;20395;-96
2023/06/17 04:49:13;;;;;;;25.73;13.02;;;;;;;;;;4849011;29;20041;-92
2023/06/17 04:51:41;;;;;;;35.65;12.80;;;;;;;;;;4844809;29;20061;-94
2023/06/17 04:54:08;;;;;;;27.00;13.73;;;;;;;;;;4838155;29;20120;-93
2023/06/17 04:56:34;;;;;;;24.65;12.82;;;;;;;;;;4840058;29;20710;-91
2023/06/17 04:59:01;;;;;;;28.02;15.55;;;;;;;;;;4872238;29;20025;-94
2023/06/17 05:01:30;;;;;;;26.80;14.73;;;;;;;;;;4848179;29;20045;-94
2023/06/17 05:03:56;;;;;;;26.50;14.98;;;;;;;;;;4856029;29;20042;-93
2023/06/17 05:06:27;;;;;;;33.30;16.17;;;;;;;;;;4854698;29;20048;-93
2023/06/17 05:08:54;;;;;;;24.85;15.10;;;;;;;;;;4842638;29;20037;-92
2023/06/17 05:11:21;;;;;;;24.95;14.07;;;;;;;;;;4870949;29;20042;-93
2023/06/17 05:13:47;;;;;;;23.80;14.98;;;;;;;;;;4842727;29;20082;-93
2023/06/17 05:16:14;;;;;;;30.80;16.50;;;;;;;;;;4843349;29;20039;-93
2023/06/17 05:18:40;;;;;;;26.38;15.82;;;;;;;;;;4856698;29;20854;-93
2023/06/17 05:21:07;;;;;;;34.20;16.63;;;;;;;;;;4841283;29;20045;-94
2023/06/17 05:23:33;;;;;;;27.95;16.45;;;;;;;;;;4852067;29;20124;-93
2023/06/17 05:26:06;;;;;;;34.15;18.27;;;;;;;;;;4852583;29;20040;-91
2023/06/17 05:28:32;;;;;;;35.72;17.75;;;;;;;;;;4841254;29;20375;-93
2023/06/17 05:30:58;;;;;;;31.30;17.50;;;;;;;;;;4847163;29;20048;-93
2023/06/17 05:33:24;;;;;;;34.20;16.88;;;;;;;;;;4850862;29;20198;-94
2023/06/17 05:35:51;;;;;;;26.40;14.43;;;;;;;;;;4838806;29;20041;-94
2023/06/17 05:38:17;;;;;;;23.77;14.43;;;;;;;;;;4859574;29;20305;-93
2023/06/17 05:40:49;;;;;;;33.03;15.30;;;;;;;;;;4840565;29;20051;-93
2023/06/17 05:43:15;;;;;;;28.95;14.32;;;;;;;;;;4840288;29;20109;-92
2023/06/17 05:45:42;;;;;;;37.60;14.85;;;;;;;;;;4842804;29;20082;-92
2023/06/17 05:48:08;;;;;;;32.70;14.63;;;;;;;;;;4841633;29;20037;-94
2023/06/17 05:50:34;;;;;;;23.67;13.27;;;;;;;;;;4843777;29;20049;-93
2023/06/17 05:53:00;;;;;;;29.17;13.45;;;;;;;;;;4851591;29;20482;-92
2023/06/17 05:55:27;;;;;;;23.30;12.55;;;;;;;;;;4852397;29;20037;-93
2023/06/17 05:57:54;;;;;;;23.90;12.10;;;;;;;;;;4850180;29;20059;-93
2023/06/17 06:00:20;;;;;;;29.80;12.95;;;;;;;;;;4839839;29;20041;-94
2023/06/17 06:02:50;;;;;;;21.67;11.63;;;;;;;;;;4837200;29;20037;-95
2023/06/17 06:05:17;;;;;;;29.45;11.75;;;;;;;;;;4849166;29;20037;-94
2023/06/17 06:07:50;;;;;;;22.80;11.02;;;;;;;;;;4856928;29;20049;-93
2023/06/17 06:10:22;;;;;;;25.73;12.05;;;;;;;;;;4843824;29;20061;-94
2023/06/17 06:12:56;;;;;;;24.05;11.27;;;;;;;;;;4859136;29;20059;-93
2023/06/17 06:15:22;;;;;;;22.45;10.68;;;;;;;;;;4862648;29;20037;-93
2023/06/17 06:17:48;;;;;;;27.58;11.27;;;;;;;;;;4845709;29;20036;-94
2023/06/17 06:20:14;;;;;;;18.20;9.85;;;;;;;;;;4842800;29;20033;-94
2023/06/17 06:22:41;;;;;;;29.80;10.70;;;;;;;;;;4841058;29;20081;-93
2023/06/17 06:25:07;;;;;;;17.45;9.80;;;;;;;;;;4842822;29;20045;-93
2023/06/17 06:27:34;;;;;;;20.80;10.90;;;;;;;;;;4856292;29;20048;-94
2023/06/17 06:30:01;;;;;;;21.02;10.40;;;;;;;;;;4860265;29;20163;-94
2023/06/17 06:32:27;;;;;;;23.48;11.00;;;;;;;;;;4848409;29;20129;-95
2023/06/17 06:35:00;;;;;;;19.08;10.55;;;;;;;;;;4843793;29;20047;-92
2023/06/17 06:37:37;;;;;;;19.92;11.52;;;;;;;;;;4859780;29;20029;-94
2023/06/17 06:40:05;;;;;;;21.40;12.27;;;;;;;;;;4875289;29;20041;-93
2023/06/17 06:42:31;;;;;;;26.23;14.02;;;;;;;;;;4846915;29;20053;-94
2023/06/17 06:44:57;;;;;;;27.52;13.07;;;;;;;;;;4856026;29;20029;-94
2023/06/17 06:47:24;;;;;;;23.25;11.52;;;;;;;;;;4858183;29;20041;-95
2023/06/17 06:49:50;;;;;;;24.80;12.32;;;;;;;;;;4847728;29;20037;-95
2023/06/17 06:52:17;;;;;;;23.55;12.68;;;;;;;;;;4878070;29;20052;-95
2023/06/17 06:54:43;;;;;;;19.92;10.95;;;;;;;;;;4850277;29;20032;-94
2023/06/17 06:57:09;;;;;;;18.05;10.20;;;;;;;;;;4870834;29;20033;-94
2023/06/17 06:59:38;;;;;;;28.38;11.65;;;;;;;;;;4846634;29;20037;-95
2023/06/17 07:02:04;;;;;;;18.08;10.57;;;;;;;;;;4852054;29;20041;-96
2023/06/17 07:04:31;;;;;;;26.70;12.20;;;;;;;;;;4865010;29;20061;-95
2023/06/17 07:06:57;;;;;;;21.95;10.30;;;;;;;;;;4848400;29;20033;-94
2023/06/17 07:09:25;;;;;;;24.92;11.05;;;;;;;;;;4846161;29;20045;-95
2023/06/17 07:11:51;;;;;;;21.85;10.60;;;;;;;;;;4854815;29;20021;-93
2023/06/17 07:14:18;;;;;;;18.05;11.60;;;;;;;;;;4857049;29;20037;-95
2023/06/17 07:16:47;;;;;;;23.48;11.90;;;;;;;;;;4847063;29;20044;-93
2023/06/17 07:19:13;;;;;;;22.42;10.07;;;;;;;;;;4863671;29;20131;-95
2023/06/17 07:21:39;;;;;;;19.15;9.50;;;;;;;;;;4859168;29;20037;-94
2023/06/17 07:24:06;;;;;;;15.70;9.05;;;;;;;;;;4866033;29;20029;-95
2023/06/17 07:26:39;;;;;;;25.75;9.93;;;;;;;;;;4842811;29;20052;-95
2023/06/17 07:29:05;;;;;;;18.95;11.05;;;;;;;;;;4862731;29;20112;-93
2023/06/17 07:31:34;;;;;;;24.40;10.85;;;;;;;;;;4841177;29;20158;-93
2023/06/17 07:34:01;;;;;;;20.90;10.60;;;;;;;;;;4849411;29;20077;-94
2023/06/17 07:36:30;;;;;;;22.45;10.05;;;;;;;;;;4857842;29;20036;-93
2023/06/17 07:38:57;;;;;;;24.25;10.20;;;;;;;;;;4863232;29;20394;-94
2023/06/17 07:41:24;;;;;;;17.17;10.38;;;;;;;;;;4847161;29;20409;-94
2023/06/17 07:43:52;;;;;;;21.55;10.23;;;;;;;;;;4848862;29;20128;-94
2023/06/17 07:46:21;;;;;;;19.10;10.48;;;;;;;;;;4859167;29;20037;-95
2023/06/17 07:48:47;;;;;;;14.88;9.10;;;;;;;;;;4861383;29;20073;-94
2023/06/17 07:51:13;;;;;;;17.15;9.60;;;;;;;;;;4842209;29;20140;-94
2023/06/17 07:53:42;;;;;;;21.08;9.18;;;;;;;;;;4858802;29;20029;-95
2023/06/17 07:56:08;;;;;;;24.40;10.10;;;;;;;;;;4861589;29;20416;-95
2023/06/17 07:58:37;;;;;;;15.02;9.77;;;;;;;;;;4876231;29;20037;-94
2023/06/17 08:01:04;;;;;;;15.68;9.38;;;;;;;;;;4870784;29;20078;-94
2023/06/17 08:03:30;;;;;;;19.73;9.85;;;;;;;;;;4849859;29;20033;-94
2023/06/17 08:05:58;;;;;;;13.55;8.98;;;;;;;;;;4848233;29;20040;-95
2023/06/17 08:08:25;;;;;;;14.55;8.65;;;;;;;;;;4851867;29;20043;-95
2023/06/17 08:11:15;;;;;;;19.33;9.27;;;;;;;;;;4860499;29;20485;-93
2023/06/17 08:13:41;;;;;;;16.00;9.40;;;;;;;;;;4865925;29;20059;-93
2023/06/17 08:16:07;;;;;;;17.80;8.63;;;;;;;;;;4861537;29;20068;-91
2023/06/17 08:18:36;;;;;;;16.83;8.70;;;;;;;;;;4844882;29;20064;-92
2023/06/17 08:21:19;;;;;;;10.38;7.93;;;;;;;;;;4853143;29;20120;-92
2023/06/17 08:23:45;;;;;;;20.80;9.18;;;;;;;;;;4860343;29;20064;-93
2023/06/17 08:28:58;;;;;;;14.65;8.07;;;;;;;;;;4865001;29;20049;-92
2023/06/17 08:31:28;;;;;;;16.38;7.60;;;;;;;;;;4840517;29;20035;-93
2023/06/17 08:36:46;;;;;;;14.60;7.60;;;;;;;;;;4801992;29;20051;-91
2023/06/17 08:39:16;;;;;;;14.48;7.95;;;;;;;;;;4798298;29;20337;-94
2023/06/17 08:41:43;;;;;;;14.75;9.00;;;;;;;;;;4799964;29;20150;-94
2023/06/17 08:44:28;;;;;;;18.70;8.63;;;;;;;;;;4804441;29;20130;-95
2023/06/17 08:47:04;;;;;;;14.10;7.45;;;;;;;;;;4804641;29;20110;-95
2023/06/17 08:49:46;;;;;;;16.95;9.25;;;;;;;;;;4861554;29;20040;-95
2023/06/17 08:52:16;;;;;;;17.17;7.05;;;;;;;;;;4890061;29;20057;-93
2023/06/17 08:54:43;;;;;;;15.75;7.38;;;;;;;;;;4874073;29;20056;-91
2023/06/17 08:57:13;;;;;;;12.35;7.30;;;;;;;;;;4877001;29;20514;-92
2023/06/17 09:00:26;;;;;;;14.95;8.88;;;;;;;;;;4875504;29;20037;-91
2023/06/17 09:02:56;;;;;;;13.68;7.50;;;;;;;;;;4872550;29;20052;-90
2023/06/17 09:05:22;;;;;;;12.27;6.45;;;;;;;;;;4869080;29;20024;-89
2023/06/17 09:07:49;;;;;;;12.77;7.25;;;;;;;;;;4852623;29;20041;-89
2023/06/17 09:13:04;;;;;;;9.88;7.25;;;;;;;;;;4880505;29;20019;-90
2023/06/17 09:15:40;;;;;;;14.00;7.63;;;;;;;;;;4869061;29;20474;-87
2023/06/17 09:18:10;;;;;;;11.57;6.68;;;;;;;;;;4849311;29;20069;-89
2023/06/17 09:20:58;;;;;;;;;;;;;;;;;;;;;
2023/06/17 09:23:26;;;;;;;16.08;7.35;;;;;;;;;;4888107;29;20037;-88
2023/06/17 09:26:06;;;;;;;15.07;7.00;;;;;;;;;;4875070;29;20048;-85
2023/06/17 09:31:28;;;;;;;14.93;7.77;;;;;;;;;;4878194;29;20032;-89
2023/06/17 09:34:07;;;;;;;13.25;7.03;;;;;;;;;;4867486;29;20038;-88
2023/06/17 09:36:39;;;;;;;12.63;7.78;;;;;;;;;;4870377;29;20041;-89
2023/06/17 09:39:09;;;;;;;16.05;8.90;;;;;;;;;;4873611;29;20037;-86
2023/06/17 09:41:40;;;;;;;11.15;7.18;;;;;;;;;;4865593;29;20029;-89
2023/06/17 09:44:20;;;;;;;11.38;7.07;;;;;;;;;;4841345;29;20048;-88
2023/06/17 09:47:05;;;;;;;20.27;7.70;;;;;;;;;;4868382;29;20037;-88
2023/06/17 09:49:33;;;;;;;11.63;7.03;;;;;;;;;;4878892;29;20033;-87
2023/06/17 09:52:08;;;;;;;13.32;7.60;;;;;;;;;;4870183;29;20064;-87
2023/06/17 09:57:31;;;;;;;14.40;6.97;;;;;;;;;;4879673;29;20030;-88
2023/06/17 09:59:58;;;;;;;14.25;6.95;;;;;;;;;;4845829;29;20030;-88
2023/06/17 10:03:07;;;;;;;12.43;7.70;;;;;;;;;;4873961;29;20504;-88
2023/06/17 10:05:20;;;;;;;13.43;7.10;;;;;;;;;;4883217;29;20026;-88
2023/06/17 10:07:56;;;;;;;12.93;7.80;;;;;;;;;;4872377;29;20541;-88
2023/06/17 10:10:23;;;;;;;15.75;7.72;;;;;;;;;;4856495;29;20112;-88
2023/06/17 10:13:06;;;;;;;18.00;7.72;;;;;;;;;;4860250;29;20025;-89
2023/06/17 10:15:34;;;;;;;17.33;7.50;;;;;;;;;;4879861;29;20032;-91
2023/06/17 10:18:03;;;;;;;32.55;7.50;;;;;;;;;;4865479;29;20029;-91
2023/06/17 10:20:32;;;;;;;15.15;8.35;;;;;;;;;;4853612;29;20044;-90
2023/06/17 10:23:00;;;;;;;11.73;7.45;;;;;;;;;;4867617;29;20037;-89
2023/06/17 10:25:28;;;;;;;13.75;7.28;;;;;;;;;;4866886;29;20156;-90
2023/06/17 10:27:54;;;;;;;12.30;6.93;;;;;;;;;;4870660;29;20044;-91
2023/06/17 10:30:28;;;;;;;12.77;6.82;;;;;;;;;;4867882;29;20192;-90
2023/06/17 10:36:05;;;;;;;12.25;6.95;;;;;;;;;;4874111;29;20059;-90
2023/06/17 10:38:33;;;;;;;16.13;6.65;;;;;;;;;;4882315;29;20521;-90
2023/06/17 10:40:59;;;;;;;12.77;6.65;;;;;;;;;;4863623;29;20057;-90
2023/06/17 10:43:29;;;;;;;15.85;7.10;;;;;;;;;;4859545;29;20061;-90
2023/06/17 10:45:56;;;;;;;11.15;6.72;;;;;;;;;;4868783;29;20113;-91
2023/06/17 10:48:32;;;;;;;16.67;6.70;;;;;;;;;;4856084;29;20034;-90
2023/06/17 10:51:22;;;;;;;15.32;6.43;;;;;;;;;;4851352;29;20045;-89
2023/06/17 10:54:00;;;;;;;13.00;6.95;;;;;;;;;;4866595;29;20144;-90
2023/06/17 10:56:26;;;;;;;11.73;6.68;;;;;;;;;;4868468;29;20091;-90
2023/06/17 10:58:52;;;;;;;8.73;6.25;;;;;;;;;;4853232;29;20045;-90
2023/06/17 11:01:19;;;;;;;12.23;6.47;;;;;;;;;;4846076;29;20041;-93
2023/06/17 11:06:33;;;;;;;13.82;7.15;;;;;;;;;;4857903;29;20100;-93
2023/06/17 11:09:00;;;;;;;14.30;7.65;;;;;;;;;;4848692;29;20062;-93
2023/06/17 11:11:35;;;;;;;12.88;7.43;;;;;;;;;;4849451;29;20343;-94
2023/06/17 11:14:01;;;;;;;9.48;6.25;;;;;;;;;;4847915;29;20033;-93
2023/06/17 11:16:29;;;;;;;11.13;6.13;;;;;;;;;;4846721;29;20029;-93
2023/06/17 11:18:56;;;;;;;9.10;6.00;;;;;;;;;;4853529;29;20056;-93
2023/06/17 11:21:22;;;;;;;10.48;6.00;;;;;;;;;;4859421;29;20048;-94
2023/06/17 11:23:48;;;;;;;10.45;5.47;;;;;;;;;;4863644;29;20061;-94
2023/06/17 11:26:14;;;;;;;9.18;6.10;;;;;;;;;;4845201;29;20051;-93
2023/06/17 11:28:44;;;;;;;8.63;6.25;;;;;;;;;;4845718;29;20064;-94
2023/06/17 11:31:11;;;;;;;9.77;5.90;;;;;;;;;;4843740;29;20036;-95
2023/06/17 11:33:37;;;;;;;10.35;6.35;;;;;;;;;;4856231;29;20041;-93
2023/06/17 11:36:09;;;;;;;13.40;5.85;;;;;;;;;;4846101;29;20553;-92
2023/06/17 11:38:38;;;;;;;10.85;5.68;;;;;;;;;;4850687;29;20033;-94
2023/06/17 11:41:04;;;;;;;10.43;5.93;;;;;;;;;;4874243;29;20112;-94
2023/06/17 11:43:37;;;;;;;11.48;6.68;;;;;;;;;;4855290;29;20581;-93
2023/06/17 11:46:05;;;;;;;12.40;5.78;;;;;;;;;;4855133;29;20037;-94
2023/06/17 11:48:38;;;;;;;10.18;5.47;;;;;;;;;;4861475;29;20431;-93
2023/06/17 11:51:07;;;;;;;13.65;6.40;;;;;;;;;;4858096;29;20040;-93
2023/06/17 11:53:43;;;;;;;13.48;6.57;;;;;;;;;;4854252;29;20054;-92
2023/06/17 11:56:13;;;;;;;11.32;5.57;;;;;;;;;;4872639;29;20028;-94
2023/06/17 11:58:47;;;;;;;8.02;5.72;;;;;;;;;;4878256;29;20049;-93
2023/06/17 12:01:16;;;;;;;12.27;6.22;;;;;;;;;;4858708;29;20028;-94
2023/06/17 12:03:46;;;;;;;7.72;5.75;;;;;;;;;;4846340;29;20041;-92
2023/06/17 12:06:19;;;;;;;9.43;5.88;;;;;;;;;;4865964;29;20029;-93
2023/06/17 12:08:55;;;;;;;10.07;5.97;;;;;;;;;;4874938;29;20123;-93
2023/06/17 12:11:32;;;;;;;11.73;6.60;;;;;;;;;;4877551;29;20036;-92
2023/06/17 12:13:59;;;;;;;9.02;5.97;;;;;;;;;;4868661;29;20023;-92
2023/06/17 12:16:30;;;;;;;12.07;6.28;;;;;;;;;;4845544;29;20037;-93
2023/06/17 12:18:57;;;;;;;13.10;6.57;;;;;;;;;;4866347;29;20068;-94
2023/06/17 12:21:27;;;;;;;10.95;5.88;;;;;;;;;;4851055;29;20040;-92
2023/06/17 12:23:54;;;;;;;9.73;5.90;;;;;;;;;;4855823;29;20048;-93
2023/06/17 12:26:26;;;;;;;12.65;6.32;;;;;;;;;;4862710;29;20677;-93
2023/06/17 12:28:52;;;;;;;11.77;6.88;;;;;;;;;;4849761;29;20064;-93
2023/06/17 12:31:19;;;;;;;11.30;6.60;;;;;;;;;;4862520;29;20036;-93
2023/06/17 12:33:46;;;;;;;11.65;6.53;;;;;;;;;;4864154;29;20056;-94
2023/06/17 12:36:13;;;;;;;10.98;6.55;;;;;;;;;;4856961;29;20025;-93
2023/06/17 12:38:40;;;;;;;12.55;5.35;;;;;;;;;;4858009;29;20041;-93
2023/06/17 12:41:10;;;;;;;9.95;5.65;;;;;;;;;;4861485;29;20052;-93
2023/06/17 12:43:38;;;;;;;8.73;5.65;;;;;;;;;;4862121;29;20065;-93
2023/06/17 12:46:08;;;;;;;15.32;6.63;;;;;;;;;;4852901;29;20033;-94
2023/06/17 12:48:37;;;;;;;14.88;5.60;;;;;;;;;;4871355;29;20081;-94
2023/06/17 12:51:03;;;;;;;16.00;5.53;;;;;;;;;;4848692;29;20136;-94
2023/06/17 12:53:30;;;;;;;10.40;5.72;;;;;;;;;;4844218;29;20033;-94
2023/06/17 12:55:59;;;;;;;10.20;5.82;;;;;;;;;;4848339;29;20040;-93
2023/06/17 12:58:25;;;;;;;15.20;5.93;;;;;;;;;;4849706;29;20021;-92
2023/06/17 13:00:52;;;;;;;11.02;5.63;;;;;;;;;;4862691;29;20041;-93
2023/06/17 13:03:19;;;;;;;11.40;6.03;;;;;;;;;;4859312;29;20033;-94
2023/06/17 13:05:47;;;;;;;10.80;5.43;;;;;;;;;;4865476;29;21290;-93
2023/06/17 13:08:13;;;;;;;10.90;6.13;;;;;;;;;;4856983;29;20155;-93
2023/06/17 13:10:40;;;;;;;13.10;6.40;;;;;;;;;;4851177;29;20032;-92
2023/06/17 13:13:07;;;;;;;12.23;6.07;;;;;;;;;;4848360;29;20053;-93
2023/06/17 13:15:33;;;;;;;11.68;6.25;;;;;;;;;;4846249;29;20033;-93
2023/06/17 13:18:02;;;;;;;11.23;6.43;;;;;;;;;;4845551;29;20044;-93
2023/06/17 13:20:44;;;;;;;8.93;5.25;;;;;;;;;;4849258;29;20053;-92
2023/06/17 13:23:10;;;;;;;10.95;6.35;;;;;;;;;;4850283;29;20041;-93
2023/06/17 13:25:36;;;;;;;10.27;6.53;;;;;;;;;;4842441;29;20128;-94
2023/06/17 13:28:02;;;;;;;10.25;5.65;;;;;;;;;;4856164;29;20042;-93
2023/06/17 13:30:29;;;;;;;11.40;5.95;;;;;;;;;;4845527;29;20164;-92
2023/06/17 13:32:56;;;;;;;8.85;5.95;;;;;;;;;;4853135;29;20121;-93
2023/06/17 13:35:25;;;;;;;8.93;6.05;;;;;;;;;;4846884;29;20093;-93
2023/06/17 13:37:52;;;;;;;13.90;6.18;;;;;;;;;;4843822;29;20101;-93
2023/06/17 13:40:18;;;;;;;13.02;6.05;;;;;;;;;;4847263;29;20510;-94
2023/06/17 13:42:44;;;;;;;10.50;6.43;;;;;;;;;;4841204;29;20077;-93
2023/06/17 13:45:11;;;;;;;12.55;5.65;;;;;;;;;;4870150;29;20041;-93
2023/06/17 13:47:37;;;;;;;12.65;6.30;;;;;;;;;;4844075;29;20170;-92
2023/06/17 13:50:03;;;;;;;15.10;5.68;;;;;;;;;;4864498;29;20059;-94
2023/06/17 13:52:36;;;;;;;10.00;6.32;;;;;;;;;;4865491;29;20202;-93
2023/06/17 13:55:03;;;;;;;16.50;6.55;;;;;;;;;;4845039;29;20320;-93
2023/06/17 13:57:29;;;;;;;12.07;6.15;;;;;;;;;;4854467;29;20069;-92
2023/06/17 13:59:56;;;;;;;14.32;7.00;;;;;;;;;;4839965;29;20056;-93
2023/06/17 14:02:27;;;;;;;10.20;5.82;;;;;;;;;;4861162;29;20604;-93
2023/06/17 14:04:54;;;;;;;13.95;6.15;;;;;;;;;;4855722;29;20036;-93
2023/06/17 14:07:20;;;;;;;17.45;6.20;;;;;;;;;;4856417;29;20047;-93
2023/06/17 14:09:46;;;;;;;9.75;5.95;;;;;;;;;;4860365;29;20320;-94
2023/06/17 14:12:12;;;;;;;9.10;5.72;;;;;;;;;;4846192;29;20525;-95
2023/06/17 14:14:39;;;;;;;14.40;6.43;;;;;;;;;;4869658;29;20394;-94
2023/06/17 14:17:08;;;;;;;12.77;6.18;;;;;;;;;;4844460;29;20040;-94
2023/06/17 14:19:35;;;;;;;10.13;5.65;;;;;;;;;;4849871;29;20032;-94
2023/06/17 14:22:06;;;;;;;13.13;5.75;;;;;;;;;;4846516;29;20471;-94
2023/06/17 14:24:35;;;;;;;13.75;6.43;;;;;;;;;;4856849;29;20037;-92
2023/06/17 14:27:20;;;;;;;12.00;6.03;;;;;;;;;;4840147;29;20060;-91
2023/06/17 14:29:46;;;;;;;14.65;6.60;;;;;;;;;;4879037;29;20091;-93
2023/06/17 14:32:12;;;;;;;15.60;7.47;;;;;;;;;;4856532;29;20478;-95
2023/06/17 14:34:39;;;;;;;12.15;6.65;;;;;;;;;;4847087;29;20054;-93
2023/06/17 14:37:06;;;;;;;14.40;7.05;;;;;;;;;;4847756;29;20041;-93
2023/06/17 14:39:32;;;;;;;20.85;7.97;;;;;;;;;;4847721;29;20091;-94
2023/06/17 14:41:58;;;;;;;12.48;6.82;;;;;;;;;;4870568;29;20508;-93
2023/06/17 14:44:25;;;;;;;10.50;6.82;;;;;;;;;;4844353;29;20068;-93
2023/06/17 14:46:51;;;;;;;14.82;6.88;;;;;;;;;;4849469;29;20636;-92
2023/06/17 14:49:17;;;;;;;12.98;6.85;;;;;;;;;;4850951;29;20064;-93
2023/06/17 14:51:43;;;;;;;10.27;5.45;;;;;;;;;;4849837;29;20142;-92
2023/06/17 14:54:10;;;;;;;11.30;6.22;;;;;;;;;;4859191;29;20060;-93
2023/06/17 14:56:36;;;;;;;12.15;6.72;;;;;;;;;;4866750;29;20421;-93
2023/06/17 14:59:03;;;;;;;12.85;6.30;;;;;;;;;;4841447;29;20037;-94